sensor_id;sensor_type;location;lat;lon;timestamp;P1;durP1;ratioP1;P2;durP2;ratioP2
42282;SDS011;28237;47.954;21.730;2022-07-29T00:00:34;4.10;;;3.70;;
42282;SDS011;28237;47.954;21.730;2022-07-29T00:02:59;4.13;;;3.73;;
42282;SDS011;28237;47.954;21.730;2022-07-29T00:05:24;3.95;;;3.65;;
42282;SDS011;28237;47.954;21.730;2022-07-29T00:07:49;7.10;;;3.78;;
42282;SDS011;28237;47.954;21.730;2022-07-29T00:10:15;4.47;;;4.03;;
42282;SDS011;28237;47.954;21.730;2022-07-29T00:12:40;3.57;;;3.27;;
42282;SDS011;28237;47.954;21.730;2022-07-29T00:15:05;4.30;;;3.90;;
42282;SDS011;28237;47.954;21.730;2022-07-29T00:17:32;4.30;;;3.90;;
42282;SDS011;28237;47.954;21.730;2022-07-29T00:19:58;4.55;;;4.15;;
42282;SDS011;28237;47.954;21.730;2022-07-29T00:22:24;5.10;;;3.53;;
42282;SDS011;28237;47.954;21.730;2022-07-29T00:24:49;4.13;;;3.83;;
42282;SDS011;28237;47.954;21.730;2022-07-29T00:27:14;5.80;;;3.92;;
42282;SDS011;28237;47.954;21.730;2022-07-29T00:29:40;4.33;;;3.93;;
42282;SDS011;28237;47.954;21.730;2022-07-29T00:32:05;4.03;;;3.60;;
42282;SDS011;28237;47.954;21.730;2022-07-29T00:34:30;5.40;;;4.75;;
42282;SDS011;28237;47.954;21.730;2022-07-29T00:37:14;5.43;;;3.78;;
42282;SDS011;28237;47.954;21.730;2022-07-29T00:39:39;5.93;;;4.33;;
42282;SDS011;28237;47.954;21.730;2022-07-29T00:42:05;6.33;;;4.20;;
42282;SDS011;28237;47.954;21.730;2022-07-29T00:44:30;4.50;;;4.10;;
42282;SDS011;28237;47.954;21.730;2022-07-29T00:46:56;4.68;;;3.90;;
42282;SDS011;28237;47.954;21.730;2022-07-29T00:49:21;3.73;;;3.40;;
42282;SDS011;28237;47.954;21.730;2022-07-29T00:51:46;4.37;;;3.97;;
42282;SDS011;28237;47.954;21.730;2022-07-29T00:54:13;5.15;;;4.60;;
42282;SDS011;28237;47.954;21.730;2022-07-29T00:56:38;6.73;;;5.07;;
42282;SDS011;28237;47.954;21.730;2022-07-29T00:59:03;4.03;;;3.73;;
42282;SDS011;28237;47.954;21.730;2022-07-29T01:01:28;4.53;;;4.13;;
42282;SDS011;28237;47.954;21.730;2022-07-29T01:03:54;5.80;;;4.10;;
42282;SDS011;28237;47.954;21.730;2022-07-29T01:06:19;4.07;;;3.77;;
42282;SDS011;28237;47.954;21.730;2022-07-29T01:08:45;5.35;;;3.97;;
42282;SDS011;28237;47.954;21.730;2022-07-29T01:11:12;4.07;;;3.72;;
42282;SDS011;28237;47.954;21.730;2022-07-29T01:13:37;3.95;;;3.65;;
42282;SDS011;28237;47.954;21.730;2022-07-29T01:16:04;5.15;;;3.63;;
42282;SDS011;28237;47.954;21.730;2022-07-29T01:18:33;4.20;;;3.78;;
42282;SDS011;28237;47.954;21.730;2022-07-29T01:23:33;3.50;;;3.20;;
42282;SDS011;28237;47.954;21.730;2022-07-29T01:28:51;4.72;;;4.00;;
42282;SDS011;28237;47.954;21.730;2022-07-29T01:31:27;5.40;;;4.90;;
42282;SDS011;28237;47.954;21.730;2022-07-29T01:33:57;4.15;;;3.33;;
42282;SDS011;28237;47.954;21.730;2022-07-29T01:36:31;4.38;;;3.90;;
42282;SDS011;28237;47.954;21.730;2022-07-29T01:41:38;4.55;;;4.03;;
42282;SDS011;28237;47.954;21.730;2022-07-29T01:44:13;4.95;;;3.78;;
42282;SDS011;28237;47.954;21.730;2022-07-29T01:46:41;6.13;;;4.00;;
42282;SDS011;28237;47.954;21.730;2022-07-29T01:49:10;5.95;;;3.70;;
42282;SDS011;28237;47.954;21.730;2022-07-29T01:51:40;3.88;;;3.58;;
42282;SDS011;28237;47.954;21.730;2022-07-29T01:54:25;4.95;;;3.67;;
42282;SDS011;28237;47.954;21.730;2022-07-29T01:56:51;4.47;;;4.07;;
42282;SDS011;28237;47.954;21.730;2022-07-29T01:59:19;5.35;;;4.28;;
42282;SDS011;28237;47.954;21.730;2022-07-29T02:01:45;3.95;;;3.63;;
42282;SDS011;28237;47.954;21.730;2022-07-29T02:04:11;4.50;;;4.10;;
42282;SDS011;28237;47.954;21.730;2022-07-29T02:06:38;4.45;;;3.63;;
42282;SDS011;28237;47.954;21.730;2022-07-29T02:09:05;3.85;;;3.55;;
42282;SDS011;28237;47.954;21.730;2022-07-29T02:11:31;5.80;;;3.65;;
42282;SDS011;28237;47.954;21.730;2022-07-29T02:13:58;4.18;;;3.50;;
42282;SDS011;28237;47.954;21.730;2022-07-29T02:16:24;4.32;;;3.72;;
42282;SDS011;28237;47.954;21.730;2022-07-29T02:18:52;4.60;;;3.88;;
42282;SDS011;28237;47.954;21.730;2022-07-29T02:21:19;9.70;;;5.13;;
42282;SDS011;28237;47.954;21.730;2022-07-29T02:23:45;8.05;;;3.75;;
42282;SDS011;28237;47.954;21.730;2022-07-29T02:26:11;4.40;;;2.95;;
42282;SDS011;28237;47.954;21.730;2022-07-29T02:28:36;6.30;;;4.00;;
42282;SDS011;28237;47.954;21.730;2022-07-29T02:31:04;4.35;;;3.63;;
42282;SDS011;28237;47.954;21.730;2022-07-29T02:33:30;5.60;;;3.95;;
42282;SDS011;28237;47.954;21.730;2022-07-29T02:35:56;4.03;;;3.40;;
42282;SDS011;28237;47.954;21.730;2022-07-29T02:38:22;6.25;;;3.95;;
42282;SDS011;28237;47.954;21.730;2022-07-29T02:41:13;4.90;;;4.43;;
42282;SDS011;28237;47.954;21.730;2022-07-29T02:43:40;5.70;;;3.70;;
42282;SDS011;28237;47.954;21.730;2022-07-29T02:46:08;4.30;;;3.75;;
42282;SDS011;28237;47.954;21.730;2022-07-29T02:48:36;7.57;;;3.72;;
42282;SDS011;28237;47.954;21.730;2022-07-29T02:51:06;3.80;;;3.38;;
42282;SDS011;28237;47.954;21.730;2022-07-29T02:53:33;4.82;;;3.60;;
42282;SDS011;28237;47.954;21.730;2022-07-29T02:56:00;4.70;;;3.90;;
42282;SDS011;28237;47.954;21.730;2022-07-29T02:58:46;3.90;;;3.53;;
42282;SDS011;28237;47.954;21.730;2022-07-29T03:01:15;4.30;;;3.15;;
42282;SDS011;28237;47.954;21.730;2022-07-29T03:03:40;6.25;;;3.85;;
42282;SDS011;28237;47.954;21.730;2022-07-29T03:06:07;7.05;;;3.75;;
42282;SDS011;28237;47.954;21.730;2022-07-29T03:08:33;5.80;;;3.67;;
42282;SDS011;28237;47.954;21.730;2022-07-29T03:10:59;4.38;;;3.97;;
42282;SDS011;28237;47.954;21.730;2022-07-29T03:13:25;5.05;;;3.47;;
42282;SDS011;28237;47.954;21.730;2022-07-29T03:15:51;3.85;;;3.50;;
42282;SDS011;28237;47.954;21.730;2022-07-29T03:18:17;4.25;;;3.60;;
42282;SDS011;28237;47.954;21.730;2022-07-29T03:20:42;3.33;;;3.03;;
42282;SDS011;28237;47.954;21.730;2022-07-29T03:23:08;5.57;;;3.97;;
42282;SDS011;28237;47.954;21.730;2022-07-29T03:25:33;4.75;;;3.97;;
42282;SDS011;28237;47.954;21.730;2022-07-29T03:27:59;5.40;;;3.55;;
42282;SDS011;28237;47.954;21.730;2022-07-29T03:30:25;4.95;;;3.40;;
42282;SDS011;28237;47.954;21.730;2022-07-29T03:32:50;7.18;;;3.95;;
42282;SDS011;28237;47.954;21.730;2022-07-29T03:35:16;3.95;;;3.33;;
42282;SDS011;28237;47.954;21.730;2022-07-29T03:37:42;7.20;;;3.50;;
42282;SDS011;28237;47.954;21.730;2022-07-29T03:40:07;4.07;;;3.70;;
42282;SDS011;28237;47.954;21.730;2022-07-29T03:42:33;3.63;;;3.35;;
42282;SDS011;28237;47.954;21.730;2022-07-29T03:45:05;4.45;;;3.85;;
42282;SDS011;28237;47.954;21.730;2022-07-29T03:47:31;4.63;;;3.42;;
42282;SDS011;28237;47.954;21.730;2022-07-29T03:49:59;3.97;;;3.55;;
42282;SDS011;28237;47.954;21.730;2022-07-29T03:52:25;6.85;;;4.20;;
42282;SDS011;28237;47.954;21.730;2022-07-29T03:54:50;4.95;;;3.45;;
42282;SDS011;28237;47.954;21.730;2022-07-29T03:57:15;6.07;;;3.63;;
42282;SDS011;28237;47.954;21.730;2022-07-29T03:59:41;4.10;;;3.70;;
42282;SDS011;28237;47.954;21.730;2022-07-29T04:02:08;3.72;;;3.42;;
42282;SDS011;28237;47.954;21.730;2022-07-29T04:04:34;5.32;;;3.78;;
42282;SDS011;28237;47.954;21.730;2022-07-29T04:07:00;4.07;;;3.65;;
42282;SDS011;28237;47.954;21.730;2022-07-29T04:09:25;4.40;;;3.45;;
42282;SDS011;28237;47.954;21.730;2022-07-29T04:11:50;4.15;;;3.75;;
42282;SDS011;28237;47.954;21.730;2022-07-29T04:14:16;4.75;;;3.42;;
42282;SDS011;28237;47.954;21.730;2022-07-29T04:16:41;6.90;;;4.73;;
42282;SDS011;28237;47.954;21.730;2022-07-29T04:19:06;3.67;;;3.30;;
42282;SDS011;28237;47.954;21.730;2022-07-29T04:21:36;4.43;;;4.03;;
42282;SDS011;28237;47.954;21.730;2022-07-29T04:24:01;5.38;;;3.78;;
42282;SDS011;28237;47.954;21.730;2022-07-29T04:26:26;4.20;;;3.80;;
42282;SDS011;28237;47.954;21.730;2022-07-29T04:28:52;3.93;;;3.63;;
42282;SDS011;28237;47.954;21.730;2022-07-29T04:31:17;4.70;;;3.47;;
42282;SDS011;28237;47.954;21.730;2022-07-29T04:33:42;5.87;;;3.63;;
42282;SDS011;28237;47.954;21.730;2022-07-29T04:36:08;3.42;;;3.08;;
42282;SDS011;28237;47.954;21.730;2022-07-29T04:38:33;5.53;;;3.53;;
42282;SDS011;28237;47.954;21.730;2022-07-29T04:40:58;4.93;;;4.17;;
42282;SDS011;28237;47.954;21.730;2022-07-29T04:43:23;4.70;;;3.60;;
42282;SDS011;28237;47.954;21.730;2022-07-29T04:45:48;5.20;;;4.23;;
42282;SDS011;28237;47.954;21.730;2022-07-29T04:48:14;5.53;;;3.97;;
42282;SDS011;28237;47.954;21.730;2022-07-29T04:50:39;6.00;;;3.97;;
42282;SDS011;28237;47.954;21.730;2022-07-29T04:53:05;4.65;;;3.88;;
42282;SDS011;28237;47.954;21.730;2022-07-29T04:55:30;7.97;;;4.53;;
42282;SDS011;28237;47.954;21.730;2022-07-29T04:57:56;5.43;;;4.13;;
42282;SDS011;28237;47.954;21.730;2022-07-29T05:00:21;4.50;;;3.27;;
42282;SDS011;28237;47.954;21.730;2022-07-29T05:02:48;4.50;;;4.10;;
42282;SDS011;28237;47.954;21.730;2022-07-29T05:05:13;3.88;;;3.58;;
42282;SDS011;28237;47.954;21.730;2022-07-29T05:07:38;4.10;;;3.70;;
42282;SDS011;28237;47.954;21.730;2022-07-29T05:10:04;5.70;;;5.10;;
42282;SDS011;28237;47.954;21.730;2022-07-29T05:12:29;4.80;;;3.45;;
42282;SDS011;28237;47.954;21.730;2022-07-29T05:14:54;4.70;;;3.77;;
42282;SDS011;28237;47.954;21.730;2022-07-29T05:17:20;5.32;;;3.65;;
42282;SDS011;28237;47.954;21.730;2022-07-29T05:19:45;4.10;;;3.73;;
42282;SDS011;28237;47.954;21.730;2022-07-29T05:22:10;6.53;;;3.92;;
42282;SDS011;28237;47.954;21.730;2022-07-29T05:24:35;4.47;;;3.80;;
42282;SDS011;28237;47.954;21.730;2022-07-29T05:27:01;3.87;;;3.43;;
42282;SDS011;28237;47.954;21.730;2022-07-29T05:29:26;4.17;;;3.70;;
42282;SDS011;28237;47.954;21.730;2022-07-29T05:31:51;3.70;;;3.40;;
42282;SDS011;28237;47.954;21.730;2022-07-29T05:34:18;4.88;;;3.42;;
42282;SDS011;28237;47.954;21.730;2022-07-29T05:36:43;3.78;;;3.33;;
42282;SDS011;28237;47.954;21.730;2022-07-29T05:39:09;4.95;;;3.75;;
42282;SDS011;28237;47.954;21.730;2022-07-29T05:41:34;5.87;;;3.87;;
42282;SDS011;28237;47.954;21.730;2022-07-29T05:43:59;7.33;;;4.40;;
42282;SDS011;28237;47.954;21.730;2022-07-29T05:46:24;4.73;;;4.00;;
42282;SDS011;28237;47.954;21.730;2022-07-29T05:48:50;5.10;;;4.00;;
42282;SDS011;28237;47.954;21.730;2022-07-29T05:51:15;5.40;;;3.80;;
42282;SDS011;28237;47.954;21.730;2022-07-29T05:53:40;4.30;;;3.65;;
42282;SDS011;28237;47.954;21.730;2022-07-29T05:56:06;4.17;;;3.77;;
42282;SDS011;28237;47.954;21.730;2022-07-29T05:58:33;3.92;;;3.63;;
42282;SDS011;28237;47.954;21.730;2022-07-29T06:00:58;5.47;;;3.97;;
42282;SDS011;28237;47.954;21.730;2022-07-29T06:03:26;3.60;;;3.30;;
42282;SDS011;28237;47.954;21.730;2022-07-29T06:05:51;3.63;;;3.30;;
42282;SDS011;28237;47.954;21.730;2022-07-29T06:08:17;3.93;;;3.60;;
42282;SDS011;28237;47.954;21.730;2022-07-29T06:10:42;4.40;;;3.97;;
42282;SDS011;28237;47.954;21.730;2022-07-29T06:13:07;5.78;;;3.67;;
42282;SDS011;28237;47.954;21.730;2022-07-29T06:15:32;4.70;;;4.30;;
42282;SDS011;28237;47.954;21.730;2022-07-29T06:17:58;4.20;;;3.80;;
42282;SDS011;28237;47.954;21.730;2022-07-29T06:20:23;4.20;;;3.80;;
42282;SDS011;28237;47.954;21.730;2022-07-29T06:22:48;4.73;;;4.00;;
42282;SDS011;28237;47.954;21.730;2022-07-29T06:25:13;5.20;;;4.03;;
42282;SDS011;28237;47.954;21.730;2022-07-29T06:27:39;8.77;;;4.10;;
42282;SDS011;28237;47.954;21.730;2022-07-29T06:30:04;10.00;;;3.83;;
42282;SDS011;28237;47.954;21.730;2022-07-29T06:32:32;4.05;;;3.65;;
42282;SDS011;28237;47.954;21.730;2022-07-29T06:34:57;7.05;;;3.90;;
42282;SDS011;28237;47.954;21.730;2022-07-29T06:37:22;5.97;;;3.73;;
42282;SDS011;28237;47.954;21.730;2022-07-29T06:39:47;4.90;;;4.40;;
42282;SDS011;28237;47.954;21.730;2022-07-29T06:42:13;3.87;;;3.47;;
42282;SDS011;28237;47.954;21.730;2022-07-29T06:44:38;4.07;;;3.60;;
42282;SDS011;28237;47.954;21.730;2022-07-29T06:47:03;3.70;;;3.40;;
42282;SDS011;28237;47.954;21.730;2022-07-29T06:49:29;4.33;;;3.87;;
42282;SDS011;28237;47.954;21.730;2022-07-29T06:51:54;4.00;;;3.57;;
42282;SDS011;28237;47.954;21.730;2022-07-29T06:54:20;3.90;;;3.20;;
42282;SDS011;28237;47.954;21.730;2022-07-29T06:56:45;4.13;;;3.75;;
42282;SDS011;28237;47.954;21.730;2022-07-29T06:59:11;4.32;;;4.03;;
42282;SDS011;28237;47.954;21.730;2022-07-29T07:01:37;4.68;;;3.75;;
42282;SDS011;28237;47.954;21.730;2022-07-29T07:04:03;5.63;;;3.78;;
42282;SDS011;28237;47.954;21.730;2022-07-29T07:06:28;3.85;;;3.25;;
42282;SDS011;28237;47.954;21.730;2022-07-29T07:08:54;5.60;;;3.50;;
42282;SDS011;28237;47.954;21.730;2022-07-29T07:11:20;5.88;;;3.45;;
42282;SDS011;28237;47.954;21.730;2022-07-29T07:13:46;4.32;;;3.92;;
42282;SDS011;28237;47.954;21.730;2022-07-29T07:16:11;3.60;;;3.30;;
42282;SDS011;28237;47.954;21.730;2022-07-29T07:18:36;4.63;;;3.63;;
42282;SDS011;28237;47.954;21.730;2022-07-29T07:21:02;6.87;;;3.73;;
42282;SDS011;28237;47.954;21.730;2022-07-29T07:23:27;7.25;;;4.38;;
42282;SDS011;28237;47.954;21.730;2022-07-29T07:25:52;6.20;;;3.50;;
42282;SDS011;28237;47.954;21.730;2022-07-29T07:28:18;4.03;;;3.25;;
42282;SDS011;28237;47.954;21.730;2022-07-29T07:30:44;3.88;;;3.58;;
42282;SDS011;28237;47.954;21.730;2022-07-29T07:33:09;3.67;;;3.38;;
42282;SDS011;28237;47.954;21.730;2022-07-29T07:35:34;3.93;;;3.47;;
42282;SDS011;28237;47.954;21.730;2022-07-29T07:38:00;3.60;;;3.30;;
42282;SDS011;28237;47.954;21.730;2022-07-29T07:40:25;3.67;;;3.37;;
42282;SDS011;28237;47.954;21.730;2022-07-29T07:42:50;3.63;;;2.95;;
42282;SDS011;28237;47.954;21.730;2022-07-29T07:45:16;4.93;;;3.20;;
42282;SDS011;28237;47.954;21.730;2022-07-29T07:47:42;4.15;;;3.75;;
42282;SDS011;28237;47.954;21.730;2022-07-29T07:50:08;5.60;;;3.50;;
42282;SDS011;28237;47.954;21.730;2022-07-29T07:52:33;4.35;;;3.60;;
42282;SDS011;28237;47.954;21.730;2022-07-29T07:54:59;4.88;;;3.63;;
42282;SDS011;28237;47.954;21.730;2022-07-29T07:57:24;4.85;;;3.13;;
42282;SDS011;28237;47.954;21.730;2022-07-29T07:59:50;3.43;;;3.13;;
42282;SDS011;28237;47.954;21.730;2022-07-29T08:02:15;4.60;;;3.37;;
42282;SDS011;28237;47.954;21.730;2022-07-29T08:04:40;6.60;;;3.47;;
42282;SDS011;28237;47.954;21.730;2022-07-29T08:07:06;5.55;;;3.58;;
42282;SDS011;28237;47.954;21.730;2022-07-29T08:09:32;3.53;;;3.22;;
42282;SDS011;28237;47.954;21.730;2022-07-29T08:11:58;5.85;;;3.15;;
42282;SDS011;28237;47.954;21.730;2022-07-29T08:14:24;7.03;;;3.72;;
42282;SDS011;28237;47.954;21.730;2022-07-29T08:16:49;9.80;;;4.53;;
42282;SDS011;28237;47.954;21.730;2022-07-29T08:19:15;3.70;;;3.03;;
42282;SDS011;28237;47.954;21.730;2022-07-29T08:21:41;3.78;;;2.78;;
42282;SDS011;28237;47.954;21.730;2022-07-29T08:24:06;4.83;;;3.07;;
42282;SDS011;28237;47.954;21.730;2022-07-29T08:26:50;4.87;;;3.30;;
42282;SDS011;28237;47.954;21.730;2022-07-29T08:29:15;4.27;;;3.20;;
42282;SDS011;28237;47.954;21.730;2022-07-29T08:31:41;3.97;;;3.63;;
42282;SDS011;28237;47.954;21.730;2022-07-29T08:34:06;5.50;;;3.40;;
42282;SDS011;28237;47.954;21.730;2022-07-29T08:36:32;4.15;;;3.13;;
42282;SDS011;28237;47.954;21.730;2022-07-29T08:38:58;3.67;;;3.38;;
42282;SDS011;28237;47.954;21.730;2022-07-29T08:41:23;3.67;;;2.97;;
42282;SDS011;28237;47.954;21.730;2022-07-29T08:43:49;3.40;;;3.10;;
42282;SDS011;28237;47.954;21.730;2022-07-29T08:46:14;5.75;;;2.65;;
42282;SDS011;28237;47.954;21.730;2022-07-29T08:48:41;5.57;;;2.83;;
42282;SDS011;28237;47.954;21.730;2022-07-29T08:51:06;16.10;;;4.45;;
42282;SDS011;28237;47.954;21.730;2022-07-29T08:53:32;3.42;;;3.13;;
42282;SDS011;28237;47.954;21.730;2022-07-29T08:55:57;3.70;;;3.30;;
42282;SDS011;28237;47.954;21.730;2022-07-29T08:58:23;5.63;;;3.45;;
42282;SDS011;28237;47.954;21.730;2022-07-29T09:00:53;8.65;;;3.30;;
42282;SDS011;28237;47.954;21.730;2022-07-29T09:03:19;4.32;;;3.22;;
42282;SDS011;28237;47.954;21.730;2022-07-29T09:05:45;5.63;;;3.42;;
42282;SDS011;28237;47.954;21.730;2022-07-29T09:08:12;3.65;;;2.90;;
42282;SDS011;28237;47.954;21.730;2022-07-29T09:10:37;3.00;;;2.67;;
42282;SDS011;28237;47.954;21.730;2022-07-29T09:13:03;3.70;;;3.33;;
42282;SDS011;28237;47.954;21.730;2022-07-29T09:15:28;5.00;;;3.67;;
42282;SDS011;28237;47.954;21.730;2022-07-29T09:17:53;3.83;;;2.90;;
42282;SDS011;28237;47.954;21.730;2022-07-29T09:20:20;3.80;;;3.30;;
42282;SDS011;28237;47.954;21.730;2022-07-29T09:22:47;8.27;;;3.15;;
42282;SDS011;28237;47.954;21.730;2022-07-29T09:25:14;4.07;;;3.20;;
42282;SDS011;28237;47.954;21.730;2022-07-29T09:27:39;4.97;;;3.40;;
42282;SDS011;28237;47.954;21.730;2022-07-29T09:30:06;3.50;;;3.20;;
42282;SDS011;28237;47.954;21.730;2022-07-29T09:32:32;3.67;;;3.10;;
42282;SDS011;28237;47.954;21.730;2022-07-29T09:37:42;4.33;;;3.13;;
42282;SDS011;28237;47.954;21.730;2022-07-29T09:40:14;5.57;;;4.40;;
42282;SDS011;28237;47.954;21.730;2022-07-29T09:42:40;3.60;;;3.30;;
42282;SDS011;28237;47.954;21.730;2022-07-29T09:45:06;3.95;;;2.83;;
42282;SDS011;28237;47.954;21.730;2022-07-29T09:47:45;6.88;;;2.63;;
42282;SDS011;28237;47.954;21.730;2022-07-29T09:50:11;3.58;;;3.13;;
42282;SDS011;28237;47.954;21.730;2022-07-29T09:52:45;3.03;;;2.72;;
42282;SDS011;28237;47.954;21.730;2022-07-29T09:55:10;3.53;;;3.10;;
42282;SDS011;28237;47.954;21.730;2022-07-29T09:57:36;2.80;;;2.58;;
42282;SDS011;28237;47.954;21.730;2022-07-29T10:02:30;3.37;;;2.93;;
42282;SDS011;28237;47.954;21.730;2022-07-29T10:04:55;3.40;;;3.10;;
42282;SDS011;28237;47.954;21.730;2022-07-29T10:07:21;4.28;;;2.42;;
42282;SDS011;28237;47.954;21.730;2022-07-29T10:09:52;3.67;;;2.67;;
42282;SDS011;28237;47.954;21.730;2022-07-29T10:12:19;3.45;;;3.15;;
42282;SDS011;28237;47.954;21.730;2022-07-29T10:14:44;3.17;;;2.13;;
42282;SDS011;28237;47.954;21.730;2022-07-29T10:17:09;6.13;;;2.57;;
42282;SDS011;28237;47.954;21.730;2022-07-29T10:19:35;3.60;;;3.13;;
42282;SDS011;28237;47.954;21.730;2022-07-29T10:22:03;3.00;;;2.70;;
42282;SDS011;28237;47.954;21.730;2022-07-29T10:24:29;3.70;;;2.33;;
42282;SDS011;28237;47.954;21.730;2022-07-29T10:26:54;5.57;;;2.72;;
42282;SDS011;28237;47.954;21.730;2022-07-29T10:29:20;2.65;;;2.45;;
42282;SDS011;28237;47.954;21.730;2022-07-29T10:31:49;6.68;;;3.22;;
42282;SDS011;28237;47.954;21.730;2022-07-29T10:34:30;4.82;;;2.90;;
42282;SDS011;28237;47.954;21.730;2022-07-29T10:39:36;4.17;;;3.70;;
42282;SDS011;28237;47.954;21.730;2022-07-29T10:42:11;4.15;;;2.97;;
42282;SDS011;28237;47.954;21.730;2022-07-29T10:44:41;3.60;;;2.35;;
42282;SDS011;28237;47.954;21.730;2022-07-29T10:47:07;2.90;;;2.65;;
42282;SDS011;28237;47.954;21.730;2022-07-29T10:49:33;3.50;;;2.80;;
42282;SDS011;28237;47.954;21.730;2022-07-29T10:51:59;4.55;;;2.50;;
42282;SDS011;28237;47.954;21.730;2022-07-29T10:54:44;3.33;;;3.03;;
42282;SDS011;28237;47.954;21.730;2022-07-29T10:59:39;5.10;;;2.50;;
42282;SDS011;28237;47.954;21.730;2022-07-29T11:07:13;3.80;;;2.93;;
42282;SDS011;28237;47.954;21.730;2022-07-29T11:09:41;3.22;;;2.83;;
42282;SDS011;28237;47.954;21.730;2022-07-29T11:12:52;4.45;;;3.58;;
42282;SDS011;28237;47.954;21.730;2022-07-29T11:14:55;3.08;;;2.78;;
42282;SDS011;28237;47.954;21.730;2022-07-29T11:17:21;7.85;;;3.10;;
42282;SDS011;28237;47.954;21.730;2022-07-29T11:19:46;3.97;;;3.10;;
42282;SDS011;28237;47.954;21.730;2022-07-29T11:22:31;4.07;;;3.50;;
42282;SDS011;28237;47.954;21.730;2022-07-29T11:25:13;5.07;;;2.88;;
42282;SDS011;28237;47.954;21.730;2022-07-29T11:27:38;10.57;;;4.32;;
42282;SDS011;28237;47.954;21.730;2022-07-29T11:30:04;7.70;;;2.83;;
42282;SDS011;28237;47.954;21.730;2022-07-29T11:32:37;8.82;;;2.63;;
42282;SDS011;28237;47.954;21.730;2022-07-29T11:35:16;6.50;;;3.13;;
42282;SDS011;28237;47.954;21.730;2022-07-29T11:37:42;3.67;;;2.95;;
42282;SDS011;28237;47.954;21.730;2022-07-29T11:40:08;8.40;;;3.42;;
42282;SDS011;28237;47.954;21.730;2022-07-29T11:45:01;3.77;;;2.90;;
42282;SDS011;28237;47.954;21.730;2022-07-29T11:47:26;3.53;;;3.22;;
42282;SDS011;28237;47.954;21.730;2022-07-29T11:49:53;3.28;;;2.92;;
42282;SDS011;28237;47.954;21.730;2022-07-29T11:52:19;5.43;;;2.85;;
42282;SDS011;28237;47.954;21.730;2022-07-29T11:54:44;3.88;;;3.35;;
42282;SDS011;28237;47.954;21.730;2022-07-29T11:57:12;5.20;;;2.45;;
42282;SDS011;28237;47.954;21.730;2022-07-29T11:59:43;5.28;;;2.63;;
42282;SDS011;28237;47.954;21.730;2022-07-29T12:02:09;7.63;;;3.20;;
42282;SDS011;28237;47.954;21.730;2022-07-29T12:04:56;3.13;;;2.83;;
42282;SDS011;28237;47.954;21.730;2022-07-29T12:07:32;8.95;;;3.67;;
42282;SDS011;28237;47.954;21.730;2022-07-29T12:09:58;4.45;;;3.05;;
42282;SDS011;28237;47.954;21.730;2022-07-29T12:12:23;3.17;;;2.88;;
42282;SDS011;28237;47.954;21.730;2022-07-29T12:14:49;2.97;;;2.58;;
42282;SDS011;28237;47.954;21.730;2022-07-29T12:17:30;8.03;;;3.10;;
42282;SDS011;28237;47.954;21.730;2022-07-29T12:19:56;3.13;;;2.92;;
42282;SDS011;28237;47.954;21.730;2022-07-29T12:22:26;2.95;;;2.75;;
42282;SDS011;28237;47.954;21.730;2022-07-29T12:24:52;3.05;;;2.85;;
42282;SDS011;28237;47.954;21.730;2022-07-29T12:27:17;2.60;;;2.40;;
42282;SDS011;28237;47.954;21.730;2022-07-29T12:29:42;2.83;;;2.60;;
42282;SDS011;28237;47.954;21.730;2022-07-29T12:32:07;3.63;;;2.60;;
42282;SDS011;28237;47.954;21.730;2022-07-29T12:34:33;4.25;;;2.67;;
42282;SDS011;28237;47.954;21.730;2022-07-29T12:36:59;3.42;;;2.55;;
42282;SDS011;28237;47.954;21.730;2022-07-29T12:39:25;2.05;;;1.95;;
42282;SDS011;28237;47.954;21.730;2022-07-29T12:41:52;4.00;;;2.70;;
42282;SDS011;28237;47.954;21.730;2022-07-29T12:44:18;3.17;;;2.33;;
42282;SDS011;28237;47.954;21.730;2022-07-29T12:46:43;2.78;;;2.58;;
42282;SDS011;28237;47.954;21.730;2022-07-29T12:49:11;4.70;;;2.90;;
42282;SDS011;28237;47.954;21.730;2022-07-29T12:51:45;2.85;;;2.65;;
42282;SDS011;28237;47.954;21.730;2022-07-29T12:54:11;5.97;;;2.37;;
42282;SDS011;28237;47.954;21.730;2022-07-29T12:56:38;5.03;;;2.42;;
42282;SDS011;28237;47.954;21.730;2022-07-29T12:59:17;4.32;;;2.22;;
42282;SDS011;28237;47.954;21.730;2022-07-29T13:01:43;3.13;;;1.88;;
42282;SDS011;28237;47.954;21.730;2022-07-29T13:04:09;3.35;;;1.80;;
42282;SDS011;28237;47.954;21.730;2022-07-29T13:11:34;1.90;;;1.63;;
42282;SDS011;28237;47.954;21.730;2022-07-29T13:14:00;2.92;;;2.28;;
42282;SDS011;28237;47.954;21.730;2022-07-29T13:16:25;3.97;;;2.25;;
42282;SDS011;28237;47.954;21.730;2022-07-29T13:19:02;2.90;;;2.53;;
42282;SDS011;28237;47.954;21.730;2022-07-29T13:21:28;3.97;;;2.10;;
42282;SDS011;28237;47.954;21.730;2022-07-29T13:23:53;2.43;;;2.33;;
42282;SDS011;28237;47.954;21.730;2022-07-29T13:26:18;3.13;;;2.47;;
42282;SDS011;28237;47.954;21.730;2022-07-29T13:28:44;2.47;;;1.95;;
42282;SDS011;28237;47.954;21.730;2022-07-29T13:31:10;2.30;;;1.88;;
42282;SDS011;28237;47.954;21.730;2022-07-29T13:33:35;2.38;;;2.20;;
42282;SDS011;28237;47.954;21.730;2022-07-29T13:36:00;4.67;;;2.10;;
42282;SDS011;28237;47.954;21.730;2022-07-29T13:38:25;3.47;;;1.90;;
42282;SDS011;28237;47.954;21.730;2022-07-29T13:40:52;2.65;;;2.17;;
42282;SDS011;28237;47.954;21.730;2022-07-29T13:43:17;3.13;;;2.28;;
42282;SDS011;28237;47.954;21.730;2022-07-29T13:45:42;1.83;;;1.70;;
42282;SDS011;28237;47.954;21.730;2022-07-29T13:48:08;2.60;;;2.33;;
42282;SDS011;28237;47.954;21.730;2022-07-29T13:50:33;2.47;;;1.87;;
42282;SDS011;28237;47.954;21.730;2022-07-29T13:52:58;1.40;;;1.30;;
42282;SDS011;28237;47.954;21.730;2022-07-29T13:55:24;2.53;;;1.65;;
42282;SDS011;28237;47.954;21.730;2022-07-29T13:57:49;4.63;;;1.95;;
42282;SDS011;28237;47.954;21.730;2022-07-29T14:00:14;7.97;;;2.45;;
42282;SDS011;28237;47.954;21.730;2022-07-29T14:02:41;2.03;;;1.92;;
42282;SDS011;28237;47.954;21.730;2022-07-29T14:05:06;1.60;;;1.50;;
42282;SDS011;28237;47.954;21.730;2022-07-29T14:07:31;5.07;;;2.20;;
42282;SDS011;28237;47.954;21.730;2022-07-29T14:09:57;6.60;;;2.47;;
42282;SDS011;28237;47.954;21.730;2022-07-29T14:12:22;2.17;;;1.38;;
42282;SDS011;28237;47.954;21.730;2022-07-29T14:14:47;1.60;;;1.50;;
42282;SDS011;28237;47.954;21.730;2022-07-29T14:17:13;3.13;;;1.48;;
42282;SDS011;28237;47.954;21.730;2022-07-29T14:19:38;1.25;;;1.20;;
42282;SDS011;28237;47.954;21.730;2022-07-29T14:22:04;2.35;;;1.30;;
42282;SDS011;28237;47.954;21.730;2022-07-29T14:24:30;1.60;;;1.50;;
42282;SDS011;28237;47.954;21.730;2022-07-29T14:26:56;2.13;;;1.35;;
42282;SDS011;28237;47.954;21.730;2022-07-29T14:29:21;0.90;;;0.90;;
42282;SDS011;28237;47.954;21.730;2022-07-29T14:31:46;1.37;;;1.27;;
42282;SDS011;28237;47.954;21.730;2022-07-29T14:34:11;2.43;;;1.40;;
42282;SDS011;28237;47.954;21.730;2022-07-29T14:36:37;1.67;;;1.58;;
42282;SDS011;28237;47.954;21.730;2022-07-29T14:39:02;2.43;;;1.53;;
42282;SDS011;28237;47.954;21.730;2022-07-29T14:41:27;4.70;;;1.87;;
42282;SDS011;28237;47.954;21.730;2022-07-29T14:43:53;1.92;;;1.83;;
42282;SDS011;28237;47.954;21.730;2022-07-29T14:46:18;3.30;;;2.30;;
42282;SDS011;28237;47.954;21.730;2022-07-29T14:48:44;1.80;;;1.70;;
42282;SDS011;28237;47.954;21.730;2022-07-29T14:51:09;1.70;;;1.60;;
42282;SDS011;28237;47.954;21.730;2022-07-29T14:53:35;2.95;;;1.67;;
42282;SDS011;28237;47.954;21.730;2022-07-29T14:56:00;1.90;;;1.80;;
42282;SDS011;28237;47.954;21.730;2022-07-29T14:58:26;2.17;;;2.08;;
42282;SDS011;28237;47.954;21.730;2022-07-29T15:00:51;3.97;;;2.17;;